This is the latest recevied weather packets stored in our database for station/object KB1MS. If no packets are shown the sender has not sent any weather packets the latest 10 day(s).
| Time | Temp. | Humidity | Pressure | Rain* | Wind** | Luminosity | Snow |
|---|---|---|---|---|---|---|---|
| 1787782561 | 28.33° C | 55% | 1016.2 hPa | 0 mm | - | 103 W/m² | - |
| 1787782257 | 26.67° C | 57% | 1016.3 hPa | 0 mm | - | 113 W/m² | - |
| 1787781953 | 26.67° C | 58% | 1016.3 hPa | 0 mm | - | 40 W/m² | - |
| 1787781648 | 27.78° C | 54% | 1016.1 hPa | 0 mm | - | 44 W/m² | - |
| 1787781345 | 29.44° C | 51% | 1016.1 hPa | 0 mm | - | 102 W/m² | - |
| 1787781044 | 28.89° C | 50% | 1016 hPa | 0 mm | - | 163 W/m² | - |
| 1787780744 | 29.44° C | 51% | 1016.3 hPa | 0 mm | - | 176 W/m² | - |
| 1787780443 | 29.44° C | 50% | 1016 hPa | 0 mm | - | 193 W/m² | - |
| 1787780140 | 30.56° C | 48% | 1016.1 hPa | 0 mm | - | 206 W/m² | - |
| 1787779835 | 30.56° C | 51% | 1016 hPa | 0 mm | - | 220 W/m² | - |
| 1787779534 | 30° C | 49% | 1016.1 hPa | 0 mm | - | 239 W/m² | - |
| 1787779229 | 28.89° C | 50% | 1015.9 hPa | 0 mm | - | 255 W/m² | - |
| 1787778929 | 28.89° C | 52% | 1016 hPa | 0 mm | - | 264 W/m² | - |
| 1787778625 | 30° C | 50% | 1016.1 hPa | 0 mm | - | 153 W/m² | - |
| 1787778320 | 31.11° C | 50% | 1015.9 hPa | 0 mm | - | 304 W/m² | - |
| 1787778017 | 30.56° C | 52% | 1016.3 hPa | 0 mm | - | 334 W/m² | - |
| 1787777715 | 30.56° C | 50% | 1016.2 hPa | 0 mm | - | 357 W/m² | - |
| 1787777412 | 28.89° C | 53% | 1016.1 hPa | 0 mm | - | 358 W/m² | - |
| 1787777112 | 28.89° C | 52% | 1016.3 hPa | 0 mm | - | 361 W/m² | - |
| 1787776810 | 27.78° C | 54% | 1016.3 hPa | 0 mm | - | 116 W/m² | - |
| 1787776510 | 27.22° C | 59% | 1016.3 hPa | 0 mm | - | 421 W/m² | - |
| 1787776208 | 26.11° C | 60% | 1016.3 hPa | 0 mm | - | 144 W/m² | - |
| 1787775902 | 26.11° C | 60% | 1016.4 hPa | 0 mm | - | 109 W/m² | - |
| 1787775597 | 26.67° C | 61% | 1016.4 hPa | 0 mm | - | 116 W/m² | - |
| 1787775296 | 26.67° C | 60% | 1016.4 hPa | 0 mm | - | 123 W/m² | - |
* Rain latest hour (hover to see other rain measurements)
** Current wind speed in m/s (hover to see current wind gust speed)